createdAt,value
2018-02-05T00:01:21.616Z,54.03
2018-02-05T00:03:49.522Z,54.20
2018-02-05T00:06:17.077Z,56.50
2018-02-05T00:08:44.637Z,57.03
2018-02-05T00:11:12.493Z,46.90
2018-02-05T00:13:40.058Z,45.13
2018-02-05T00:16:07.687Z,50.43
2018-02-05T00:18:35.577Z,55.03
2018-02-05T00:21:03.338Z,50.03
2018-02-05T00:23:31.600Z,50.33
2018-02-05T00:25:59.485Z,47.63
2018-02-05T00:28:27.049Z,46.50
2018-02-05T00:30:54.617Z,46.73
2018-02-05T00:33:23.485Z,59.80
2018-02-05T00:35:51.047Z,51.03
2018-02-05T00:38:18.619Z,47.37
2018-02-05T00:40:46.569Z,53.40
2018-02-05T00:43:14.124Z,61.47
2018-02-05T00:45:41.707Z,48.40
2018-02-05T00:48:09.557Z,53.00
2018-02-05T00:50:37.110Z,51.90
2018-02-05T00:53:04.695Z,43.87
2018-02-05T00:55:33.291Z,46.20
2018-02-05T00:58:01.608Z,44.40
2018-02-05T01:00:29.174Z,46.00
2018-02-05T01:02:56.945Z,49.60
2018-02-05T01:05:24.496Z,47.20
2018-02-05T01:07:52.036Z,43.43
2018-02-05T01:10:19.939Z,53.40
2018-02-05T01:12:47.515Z,43.40
2018-02-05T01:15:15.082Z,49.30
2018-02-05T01:17:43.454Z,47.57
2018-02-05T01:20:12.584Z,45.93
2018-02-05T01:22:40.150Z,38.50
2018-02-05T01:25:07.712Z,41.53
2018-02-05T01:27:35.683Z,43.53
2018-02-05T01:30:03.233Z,48.53
2018-02-05T01:32:30.808Z,45.57
2018-02-05T01:34:58.420Z,50.70
2018-02-05T01:37:26.749Z,44.03
2018-02-05T01:39:54.341Z,46.13
2018-02-05T01:42:22.199Z,45.13
2018-02-05T01:44:49.754Z,44.80
2018-02-05T01:47:17.309Z,51.77
2018-02-05T01:49:45.188Z,42.30
2018-02-05T01:52:14.253Z,52.10
2018-02-05T01:54:41.810Z,45.27
2018-02-05T01:57:09.788Z,43.30
2018-02-05T01:59:37.348Z,42.40
2018-02-05T02:02:04.906Z,56.03
2018-02-05T02:04:32.485Z,50.83
2018-02-05T02:07:00.050Z,47.90
2018-02-05T02:09:28.536Z,48.00
2018-02-05T02:11:56.474Z,52.30
2018-02-05T02:14:24.021Z,54.07
2018-02-05T02:16:51.670Z,45.07
2018-02-05T02:19:19.344Z,46.47
2018-02-05T02:21:46.909Z,40.40
2018-02-05T02:24:14.475Z,42.93
2018-02-05T02:26:42.350Z,46.47
2018-02-05T02:29:10.389Z,42.67
2018-02-05T02:31:37.951Z,44.13
2018-02-05T02:34:05.575Z,50.87
2018-02-05T02:36:33.937Z,49.80
2018-02-05T02:39:02.261Z,45.40
2018-02-05T02:41:29.869Z,47.60
2018-02-05T02:43:58.942Z,41.13
2018-02-05T02:46:26.496Z,46.03
2018-02-05T02:48:54.163Z,42.50
2018-02-05T02:51:21.725Z,51.87
2018-02-05T02:53:50.048Z,50.97
2018-02-05T02:56:17.946Z,49.70
2018-02-05T02:58:45.505Z,49.97
2018-02-05T03:01:13.061Z,42.33
2018-02-05T03:03:41.048Z,56.30
2018-02-05T03:06:08.609Z,45.50
2018-02-05T03:08:36.196Z,42.97
2018-02-05T03:11:04.562Z,48.07
2018-02-05T03:13:32.158Z,42.53
2018-02-05T03:15:59.731Z,42.23
2018-02-05T03:18:27.608Z,42.40
2018-02-05T03:20:55.166Z,41.77
2018-02-05T03:23:22.737Z,40.90
2018-02-05T03:25:50.619Z,43.60
2018-02-05T03:28:18.172Z,44.53
2018-02-05T03:30:45.744Z,43.03
2018-02-05T03:33:13.339Z,42.30
2018-02-05T03:35:40.904Z,47.70
2018-02-05T03:38:08.468Z,37.57
2018-02-05T03:40:36.374Z,42.10
2018-02-05T03:43:03.926Z,47.90
2018-02-05T03:45:31.553Z,43.77
2018-02-05T03:47:59.405Z,41.93
2018-02-05T03:50:27.732Z,45.00
2018-02-05T03:52:55.283Z,48.40
2018-02-05T03:55:23.319Z,41.73
2018-02-05T03:57:50.883Z,43.93
2018-02-05T04:00:18.464Z,42.63
2018-02-05T04:02:46.018Z,42.03
2018-02-05T04:05:13.585Z,45.23
2018-02-05T04:07:41.563Z,45.00
2018-02-05T04:10:09.186Z,44.57
2018-02-05T04:12:36.736Z,47.90
2018-02-05T04:15:04.344Z,45.10
2018-02-05T04:17:31.908Z,43.00
2018-02-05T04:20:00.988Z,41.20
2018-02-05T04:22:29.155Z,48.90
2018-02-05T04:24:56.717Z,43.50
2018-02-05T04:27:24.270Z,40.60
2018-02-05T04:29:51.863Z,47.00
2018-02-05T04:32:20.190Z,46.03
2018-02-05T04:34:47.760Z,49.50
2018-02-05T04:37:15.637Z,44.33
2018-02-05T04:39:43.203Z,46.13
2018-02-05T04:42:10.779Z,48.23
2018-02-05T04:44:39.644Z,45.00
2018-02-05T04:47:07.196Z,46.00
2018-02-05T04:49:34.772Z,42.43
2018-02-05T04:52:04.162Z,41.50
2018-02-05T04:54:31.733Z,41.97
2018-02-05T04:56:59.307Z,48.70
2018-02-05T04:59:27.930Z,36.63
2018-02-05T05:01:55.483Z,36.53
2018-02-05T05:04:23.179Z,35.80
2018-02-05T05:06:50.752Z,36.27
2018-02-05T05:09:18.332Z,38.33
2018-02-05T05:11:46.694Z,38.43
2018-02-05T05:14:14.262Z,33.43
2018-02-05T05:16:41.832Z,35.10
2018-02-05T05:19:10.476Z,36.60
2018-02-05T05:21:38.275Z,33.53
2018-02-05T05:24:06.607Z,33.10
2018-02-05T05:26:34.592Z,33.80
2018-02-05T05:29:02.156Z,35.07
2018-02-05T05:31:29.700Z,34.10
2018-02-05T05:33:57.583Z,35.10
2018-02-05T05:36:25.136Z,37.53
2018-02-05T05:38:52.692Z,33.87
2018-02-05T05:41:20.563Z,30.30
2018-02-05T05:43:48.248Z,33.83
2018-02-05T05:46:16.588Z,34.27
2018-02-05T05:48:44.455Z,31.53
2018-02-05T05:51:12.025Z,30.63
2018-02-05T05:53:39.607Z,41.13
2018-02-05T05:56:08.330Z,33.97
2018-02-05T05:58:35.894Z,32.57
2018-02-05T06:01:03.454Z,33.30
2018-02-05T06:03:31.328Z,35.67
2018-02-05T06:05:58.950Z,30.87
2018-02-05T06:08:27.281Z,33.90
2018-02-05T06:10:54.928Z,29.97
2018-02-05T06:13:22.490Z,37.40
2018-02-05T06:15:50.055Z,33.43
2018-02-05T06:18:18.339Z,28.93
2018-02-05T06:20:45.887Z,29.90
2018-02-05T06:23:13.454Z,36.43
2018-02-05T06:25:41.083Z,33.30
2018-02-05T06:28:08.669Z,33.30
2018-02-05T06:30:36.265Z,31.80
2018-02-05T06:33:04.821Z,30.33
2018-02-05T06:35:32.344Z,31.53
2018-02-05T06:37:59.888Z,30.50
2018-02-05T06:40:27.767Z,32.10
2018-02-05T06:42:55.397Z,31.20
2018-02-05T06:45:23.807Z,31.70
2018-02-05T06:47:51.889Z,35.00
2018-02-05T06:50:31.242Z,31.63
2018-02-05T06:53:11.004Z,31.20
2018-02-05T06:55:47.156Z,38.43
2018-02-05T06:58:15.008Z,32.93
2018-02-05T07:00:42.587Z,31.07
2018-02-05T07:03:10.148Z,31.37
2018-02-05T07:05:37.724Z,30.50
2018-02-05T07:08:06.041Z,36.13
2018-02-05T07:10:33.589Z,32.30
2018-02-05T07:13:01.224Z,31.73
2018-02-05T07:15:29.540Z,37.77
2018-02-05T07:17:57.104Z,28.37
2018-02-05T07:20:25.186Z,31.90
2018-02-05T07:22:52.749Z,26.70
2018-02-05T07:25:21.446Z,29.03
2018-02-05T07:27:49.396Z,32.77
2018-02-05T07:30:16.946Z,30.07
2018-02-05T07:32:44.507Z,34.57
2018-02-05T07:35:12.112Z,35.23
2018-02-05T07:37:40.447Z,34.40
2018-02-05T07:40:08.000Z,31.43
2018-02-05T07:42:35.870Z,37.07
2018-02-05T07:45:03.421Z,35.40
2018-02-05T07:47:30.973Z,33.17
2018-02-05T07:49:58.843Z,38.47
2018-02-05T07:52:26.406Z,37.83
2018-02-05T07:54:53.998Z,29.30
2018-02-05T07:57:22.652Z,40.50
2018-02-05T07:59:50.221Z,33.37
2018-02-05T08:02:17.772Z,37.63
2018-02-05T08:04:45.865Z,30.83
2018-02-05T08:07:13.688Z,34.73
2018-02-05T08:09:43.642Z,37.10
2018-02-05T08:12:11.537Z,36.70
2018-02-05T08:14:39.387Z,32.40
2018-02-05T08:17:07.719Z,36.00
2018-02-05T08:19:35.610Z,47.30
2018-02-05T08:22:03.283Z,43.47
2018-02-05T08:24:31.600Z,51.87
2018-02-05T08:26:59.464Z,57.17
2018-02-05T08:29:27.049Z,56.43
2018-02-05T08:31:54.616Z,54.30
2018-02-05T08:34:22.512Z,45.40
2018-02-05T08:36:50.859Z,32.30
2018-02-05T08:39:18.426Z,38.73
2018-02-05T08:41:46.283Z,43.17
2018-02-05T08:44:13.848Z,36.43
2018-02-05T08:46:41.405Z,36.53
2018-02-05T08:49:09.254Z,42.80
2018-02-05T08:51:36.905Z,38.53
2018-02-05T08:54:04.461Z,39.87
2018-02-05T08:56:32.362Z,38.83
2018-02-05T08:58:59.928Z,36.00
2018-02-05T09:01:27.488Z,43.33
2018-02-05T09:03:55.092Z,40.17
2018-02-05T09:06:22.657Z,43.27
2018-02-05T09:08:50.254Z,36.40
2018-02-05T09:11:18.091Z,36.13
2018-02-05T09:13:45.660Z,37.93
2018-02-05T09:16:13.225Z,39.07
2018-02-05T09:18:41.075Z,42.90
2018-02-05T09:21:08.645Z,37.90
2018-02-05T09:23:36.211Z,37.00
2018-02-05T09:26:04.186Z,36.03
2018-02-05T09:28:31.816Z,36.70
2018-02-05T09:30:59.427Z,34.50
2018-02-05T09:33:28.077Z,30.40
2018-02-05T09:35:55.658Z,30.80
2018-02-05T09:38:23.227Z,34.50
2018-02-05T09:40:51.606Z,33.00
2018-02-05T09:43:19.297Z,31.87
2018-02-05T09:45:47.617Z,31.33
2018-02-05T09:48:15.452Z,35.60
2018-02-05T09:50:43.010Z,39.03
2018-02-05T09:53:10.714Z,35.90
2018-02-05T09:55:38.659Z,32.03
2018-02-05T09:58:08.586Z,30.83
2018-02-05T10:00:36.142Z,38.03
2018-02-05T10:03:03.986Z,34.97
2018-02-05T10:05:31.551Z,34.33
2018-02-05T10:07:59.129Z,39.07
2018-02-05T10:10:26.731Z,32.80
2018-02-05T10:12:55.060Z,30.50
2018-02-05T10:15:22.671Z,32.90
2018-02-05T10:17:51.000Z,35.10
2018-02-05T10:20:18.978Z,30.83
2018-02-05T10:22:46.600Z,36.03
2018-02-05T10:25:14.154Z,34.63
2018-02-05T10:27:41.793Z,33.93
2018-02-05T10:30:10.121Z,36.60
2018-02-05T10:32:37.719Z,39.70
2018-02-05T10:35:06.050Z,39.03
2018-02-05T10:37:34.196Z,37.63
2018-02-05T10:40:01.912Z,38.13
2018-02-05T10:42:30.495Z,41.20
2018-02-05T10:44:58.817Z,52.60
2018-02-05T10:47:26.397Z,36.83
2018-02-05T10:49:53.957Z,40.30
2018-02-05T10:52:21.932Z,42.57
2018-02-05T10:54:49.485Z,43.83
2018-02-05T10:57:17.031Z,42.57
2018-02-05T10:59:44.631Z,40.47
2018-02-05T11:02:12.974Z,45.13
2018-02-05T11:04:40.866Z,47.20
2018-02-05T11:07:08.501Z,43.63
2018-02-05T11:09:36.154Z,41.00
2018-02-05T11:12:03.743Z,41.60
2018-02-05T11:14:31.312Z,43.60
2018-02-05T11:16:59.169Z,56.63
2018-02-05T11:19:26.766Z,40.03
2018-02-05T11:21:55.080Z,51.50
2018-02-05T11:24:22.657Z,43.73
2018-02-05T11:26:50.217Z,47.17
2018-02-05T11:29:17.830Z,37.83
2018-02-05T11:31:45.390Z,41.17
2018-02-05T11:34:13.734Z,50.40
2018-02-05T11:36:41.321Z,44.27
2018-02-05T11:39:09.654Z,41.53
2018-02-05T11:41:37.617Z,53.17
2018-02-05T11:44:05.180Z,45.57
2018-02-05T11:46:32.761Z,42.00
2018-02-05T11:49:00.357Z,45.73
2018-02-05T11:51:27.934Z,44.77
2018-02-05T11:53:55.770Z,45.50
2018-02-05T11:56:23.332Z,42.97
2018-02-05T11:58:50.924Z,42.10
2018-02-05T12:01:18.558Z,41.63
2018-02-05T12:03:46.110Z,39.70
2018-02-05T12:06:13.950Z,44.07
2018-02-05T12:08:41.513Z,39.37
2018-02-05T12:11:09.840Z,44.70
2018-02-05T12:13:37.415Z,39.93
2018-02-05T12:16:04.987Z,44.00
2018-02-05T12:18:33.373Z,41.47
2018-02-05T12:21:02.433Z,41.63
2018-02-05T12:23:30.207Z,43.80
2018-02-05T12:25:57.953Z,42.00
2018-02-05T12:28:25.803Z,40.60
2018-02-05T12:30:53.695Z,38.50
2018-02-05T12:33:21.267Z,34.30
2018-02-05T12:35:48.833Z,39.10
2018-02-05T12:38:16.404Z,36.23
2018-02-05T12:40:43.953Z,38.77
2018-02-05T12:43:13.344Z,33.67
2018-02-05T12:45:40.923Z,35.97
2018-02-05T12:48:09.252Z,35.50
2018-02-05T12:50:36.839Z,36.20
2018-02-05T12:53:04.399Z,32.93
2018-02-05T12:55:34.562Z,30.27
2018-02-05T12:58:02.191Z,35.80
2018-02-05T13:00:33.252Z,33.90
2018-02-05T13:03:06.073Z,32.43
2018-02-05T13:05:33.722Z,36.87
2018-02-05T13:08:01.565Z,35.73
2018-02-05T13:10:29.932Z,41.80
2018-02-05T13:12:58.321Z,34.20
2018-02-05T13:15:25.961Z,34.77
2018-02-05T13:17:55.018Z,33.30
2018-02-05T13:20:22.742Z,34.63
2018-02-05T13:22:51.077Z,36.07
2018-02-05T13:25:19.029Z,37.73
2018-02-05T13:27:46.733Z,35.30
2018-02-05T13:30:15.065Z,35.20
2018-02-05T13:32:42.632Z,33.70
2018-02-05T13:35:10.209Z,33.57
2018-02-05T13:37:38.649Z,39.57
2018-02-05T13:40:06.541Z,35.13
2018-02-05T13:42:34.111Z,36.10
2018-02-05T13:45:03.174Z,34.90
2018-02-05T13:47:30.788Z,36.50
2018-02-05T13:49:59.866Z,34.53
2018-02-05T13:52:28.994Z,32.60
2018-02-05T13:54:56.539Z,34.20
2018-02-05T13:57:24.896Z,36.50
2018-02-05T13:59:53.258Z,37.03
2018-02-05T14:02:20.818Z,35.70
2018-02-05T14:04:48.412Z,39.17
2018-02-05T14:07:16.730Z,36.47
2018-02-05T14:09:44.295Z,35.47
2018-02-05T14:12:11.886Z,41.93
2018-02-05T14:14:40.187Z,36.40
2018-02-05T14:17:08.917Z,42.63
2018-02-05T14:19:36.476Z,40.30
2018-02-05T14:22:04.031Z,37.20
2018-02-05T14:24:31.674Z,41.57
2018-02-05T14:26:59.238Z,39.23
2018-02-05T14:29:26.858Z,39.43
2018-02-05T14:31:55.196Z,40.30
2018-02-05T14:34:22.761Z,39.07
2018-02-05T14:36:50.354Z,39.40
2018-02-05T14:39:18.698Z,38.93
2018-02-05T14:41:46.305Z,33.90
2018-02-05T14:44:13.874Z,37.70
2018-02-05T14:46:41.441Z,35.37
2018-02-05T14:49:09.031Z,38.90
2018-02-05T14:51:36.572Z,34.87
2018-02-05T14:54:04.571Z,38.30
2018-02-05T14:56:32.133Z,33.13
2018-02-05T14:59:00.479Z,35.83
2018-02-05T15:01:28.084Z,35.03
2018-02-05T15:03:56.473Z,41.40
2018-02-05T15:06:25.084Z,39.63
2018-02-05T15:08:52.745Z,40.37
2018-02-05T15:11:20.293Z,33.40
2018-02-05T15:13:47.888Z,39.60
2018-02-05T15:16:15.597Z,37.47
2018-02-05T15:18:44.000Z,35.20
2018-02-05T15:21:11.558Z,35.13
2018-02-05T15:23:39.124Z,40.20
2018-02-05T15:26:06.698Z,40.70
2018-02-05T15:28:34.305Z,37.90
2018-02-05T15:31:03.879Z,40.93
2018-02-05T15:33:31.433Z,38.03
2018-02-05T15:35:58.985Z,36.33
2018-02-05T15:38:26.752Z,47.90
2018-02-05T15:40:54.307Z,34.80
2018-02-05T15:43:22.167Z,37.23
2018-02-05T15:45:49.730Z,37.97
2018-02-05T15:48:17.272Z,39.83
2018-02-05T15:50:44.875Z,36.97
2018-02-05T15:53:12.436Z,35.20
2018-02-05T15:55:40.358Z,35.00
2018-02-05T15:58:07.928Z,39.83
2018-02-05T16:00:35.790Z,43.00
2018-02-05T16:03:03.394Z,40.30
2018-02-05T16:05:31.738Z,31.97
2018-02-05T16:07:59.351Z,32.63
2018-02-05T16:10:26.918Z,36.10
2018-02-05T16:12:54.474Z,41.10
2018-02-05T16:15:22.065Z,34.10
2018-02-05T16:17:49.631Z,38.60
2018-02-05T16:20:17.229Z,38.27
2018-02-05T16:22:45.547Z,30.30
2018-02-05T16:25:13.112Z,36.47
2018-02-05T16:27:40.711Z,34.47
2018-02-05T16:30:08.256Z,32.27
2018-02-05T16:32:37.450Z,33.43
2018-02-05T16:35:05.020Z,35.13
2018-02-05T16:37:32.585Z,33.13
2018-02-05T16:40:00.210Z,33.60
2018-02-05T16:42:27.795Z,34.00
2018-02-05T16:44:56.255Z,36.60
2018-02-05T16:47:23.883Z,34.77
2018-02-05T16:49:51.439Z,37.27
2018-02-05T16:52:19.006Z,36.27
2018-02-05T16:54:46.578Z,34.13
2018-02-05T16:57:14.562Z,34.47
2018-02-05T16:59:42.125Z,35.93
2018-02-05T17:02:09.673Z,35.63
2018-02-05T17:04:37.295Z,35.83
2018-02-05T17:07:04.872Z,34.83
2018-02-05T17:09:32.458Z,35.20
2018-02-05T17:12:00.027Z,36.00
2018-02-05T17:14:27.580Z,36.90
2018-02-05T17:16:55.159Z,30.43
2018-02-05T17:19:22.725Z,31.60
2018-02-05T17:21:51.346Z,40.30
2018-02-05T17:24:18.897Z,41.20
2018-02-05T17:26:46.704Z,45.53
2018-02-05T17:31:48.879Z,39.90
2018-02-05T17:34:16.794Z,41.50
2018-02-05T17:36:45.290Z,33.57
2018-02-05T17:39:12.870Z,35.10
2018-02-05T17:41:40.458Z,34.80
2018-02-05T17:44:08.031Z,43.27
2018-02-05T17:46:36.419Z,40.80
2018-02-05T17:49:04.740Z,33.80
2018-02-05T17:51:32.314Z,37.27
2018-02-05T17:53:59.907Z,45.90
2018-02-05T17:56:28.247Z,38.67
2018-02-05T17:58:56.118Z,36.00
2018-02-05T18:01:23.712Z,38.60
2018-02-05T18:03:51.282Z,36.40
2018-02-05T18:06:19.649Z,45.33
2018-02-05T18:08:47.983Z,38.00
2018-02-05T18:11:15.851Z,39.80
2018-02-05T18:13:43.420Z,36.60
2018-02-05T18:16:10.984Z,41.27
2018-02-05T18:18:38.606Z,40.27
2018-02-05T18:21:06.187Z,36.73
2018-02-05T18:23:33.782Z,45.37
2018-02-05T18:26:02.113Z,40.20
2018-02-05T18:28:29.702Z,40.60
2018-02-05T18:30:57.567Z,42.03
2018-02-05T18:33:25.136Z,41.77
2018-02-05T18:35:53.482Z,42.83
2018-02-05T18:38:21.075Z,40.00
2018-02-05T18:40:48.651Z,41.67
2018-02-05T18:43:17.313Z,43.80
2018-02-05T18:45:44.870Z,41.77
2018-02-05T18:48:12.404Z,40.87
2018-02-05T18:50:39.996Z,46.93
2018-02-05T18:53:08.345Z,42.30
2018-02-05T18:55:36.305Z,44.20
2018-02-05T18:58:03.882Z,39.70
2018-02-05T19:00:43.237Z,42.20
2018-02-05T19:03:10.827Z,42.70
2018-02-05T19:05:38.392Z,48.20
2018-02-05T19:08:06.007Z,42.47
2018-02-05T19:10:34.284Z,43.70
2018-02-05T19:13:01.998Z,45.90
2018-02-05T19:15:29.668Z,44.20
2018-02-05T19:17:57.242Z,44.13
2018-02-05T19:20:24.876Z,42.93
2018-02-05T19:22:52.438Z,44.80
2018-02-05T19:25:20.325Z,40.40
2018-02-05T19:27:48.483Z,43.20
2018-02-05T19:30:16.056Z,46.30
2018-02-05T19:32:43.648Z,45.80
2018-02-05T19:35:11.248Z,45.50
2018-02-05T19:37:39.480Z,47.10
2018-02-05T19:40:07.914Z,45.13
2018-02-05T19:42:35.656Z,47.63
2018-02-05T19:45:03.360Z,43.23
2018-02-05T19:47:30.948Z,43.17
2018-02-05T19:49:59.598Z,42.20
2018-02-05T19:52:27.225Z,40.43
2018-02-05T19:54:54.807Z,43.53
2018-02-05T19:57:22.408Z,44.87
2018-02-05T19:59:49.960Z,51.90
2018-02-05T20:02:18.741Z,52.43
2018-02-05T20:04:46.628Z,47.50
2018-02-05T20:07:14.965Z,46.27
2018-02-05T20:09:43.403Z,46.37
2018-02-05T20:12:10.977Z,49.57
2018-02-05T20:14:38.792Z,51.03
2018-02-05T20:17:07.504Z,57.40
2018-02-05T20:19:35.828Z,61.20
2018-02-05T20:22:03.653Z,54.17
2018-02-05T20:24:31.993Z,52.20
2018-02-05T20:26:59.566Z,56.23
2018-02-05T20:29:27.936Z,58.67
2018-02-05T20:31:55.523Z,65.13
2018-02-05T20:34:23.126Z,62.50
2018-02-05T20:36:50.721Z,63.17
2018-02-05T20:39:19.469Z,51.70
2018-02-05T20:41:47.054Z,55.20
2018-02-05T20:44:14.797Z,56.40
2018-02-05T20:46:42.366Z,55.43
2018-02-05T20:49:09.928Z,57.37
2018-02-05T20:51:37.743Z,49.10
2018-02-05T20:54:05.303Z,52.73
2018-02-05T20:56:32.862Z,57.73
2018-02-05T20:59:00.453Z,57.47
2018-02-05T21:01:28.048Z,55.87
2018-02-05T21:03:56.412Z,52.87
2018-02-05T21:06:24.028Z,50.70
2018-02-05T21:08:51.837Z,47.90
2018-02-05T21:11:19.401Z,53.70
2018-02-05T21:13:46.965Z,45.63
2018-02-05T21:16:16.210Z,50.13
2018-02-05T21:18:43.791Z,52.10
2018-02-05T21:21:11.680Z,53.53
2018-02-05T21:23:39.291Z,52.43
2018-02-05T21:26:06.952Z,54.60
2018-02-05T21:28:34.616Z,57.20
2018-02-05T21:31:02.281Z,50.33
2018-02-05T21:33:29.865Z,50.53
2018-02-05T21:35:57.430Z,54.37
2018-02-05T21:38:25.358Z,48.87
2018-02-05T21:40:53.019Z,59.30
2018-02-05T21:43:20.583Z,59.20
2018-02-05T21:45:48.254Z,54.47
2018-02-05T21:48:15.811Z,58.03
2018-02-05T21:50:43.403Z,53.60
2018-02-05T21:53:12.545Z,53.63
2018-02-05T21:55:40.185Z,60.50
2018-02-05T21:58:08.743Z,61.13
2018-02-05T22:00:36.327Z,58.97
2018-02-05T22:03:04.679Z,59.80
2018-02-05T22:05:32.542Z,57.30
2018-02-05T22:08:00.114Z,56.37
2018-02-05T22:10:27.848Z,54.47
2018-02-05T22:12:55.562Z,52.70
2018-02-05T22:15:23.286Z,53.63
2018-02-05T22:17:50.893Z,67.73
2018-02-05T22:20:18.473Z,75.00
2018-02-05T22:22:46.331Z,78.33
2018-02-05T22:25:13.939Z,59.37
2018-02-05T22:27:41.480Z,59.87
2018-02-05T22:30:09.346Z,56.90
2018-02-05T22:32:36.922Z,63.53
2018-02-05T22:35:05.266Z,67.57
2018-02-05T22:37:33.146Z,68.00
2018-02-05T22:40:00.708Z,71.70
2018-02-05T22:42:28.285Z,77.10
2018-02-05T22:44:56.860Z,65.23
2018-02-05T22:47:24.465Z,53.80
2018-02-05T22:49:52.032Z,65.17
2018-02-05T22:52:19.921Z,53.83
2018-02-05T22:54:47.487Z,50.23
2018-02-05T22:57:15.052Z,52.47
2018-02-05T22:59:43.019Z,54.40
2018-02-05T23:02:10.580Z,52.97
2018-02-05T23:04:38.155Z,47.20
2018-02-05T23:07:06.102Z,60.13
2018-02-05T23:09:33.669Z,51.77
2018-02-05T23:12:01.251Z,55.57
2018-02-05T23:14:29.994Z,55.70
2018-02-05T23:16:57.606Z,55.90
2018-02-05T23:19:25.156Z,52.83
2018-02-05T23:21:53.845Z,57.20
2018-02-05T23:24:22.214Z,63.53
2018-02-05T23:26:50.560Z,53.83
2018-02-05T23:29:18.139Z,55.87
2018-02-05T23:31:45.701Z,61.37
2018-02-05T23:34:14.366Z,49.17
2018-02-05T23:36:42.046Z,55.90
2018-02-05T23:39:11.150Z,53.57
2018-02-05T23:41:39.770Z,56.10
2018-02-05T23:44:07.339Z,54.87
2018-02-05T23:46:34.910Z,61.67
2018-02-05T23:49:02.904Z,58.07
2018-02-05T23:51:30.466Z,58.60
2018-02-05T23:53:58.052Z,63.47
2018-02-05T23:56:25.832Z,62.00
2018-02-05T23:58:53.502Z,59.80
